Shin Chun — VRFD2 — position and weather

sailwx.info

Track history (hours):
 
Tides and Currents Weather Stations Pressure Air Temp Water Temp Dewpoint Dewpoint Depression Visibility Wind Speed Wind Dir Waves Ship Positions

Shin Chun

Last reported at 2015-Jul-31 10:12 UTC. Time now 2015-Jul-31 23:32 UTC.
Position N 22°48' E 120°06'.

Length 152 m; draft 6.4 m.

Type: Cargo ship. MMSI: 477218300.

Date/timePositionNaut miles runAvg speedWind from/ knotsBaromVisibWave heightAir tempDewpointWater temp
2015-Jul-31 10:12N 22°48' E 120°06'4 5.6
2015-Jul-31 09:33N 22°45' E 120°08'1 0.9
2015-Jul-31 08:33N 22°44' E 120°07'1 0.5
2015-Jul-31 07:33N 22°43' E 120°07'4 4.2
2015-Jul-31 06:33N 22°40' E 120°10'9 7.8
2015-Jul-31 05:21N 22°35' E 120°18'0 0.0
2015-Jul-31 04:33N 22°35' E 120°18'0 0.0
2015-Jul-31 03:33N 22°35' E 120°18'0 0.0
2015-Jul-31 02:27N 22°35' E 120°18'0 0.0
2015-Jul-31 01:33N 22°35' E 120°18'0 0.0
2015-Jul-31 00:11N 22°35' E 120°18'3 5.2
2015-Jul-30 23:33N 22°37' E 120°16'2 2.0
2015-Jul-30 22:29N 22°37' E 120°13'0 0.1
2015-Jul-30 21:29N 22°37' E 120°13'0 0.1
2015-Jul-30 20:23N 22°37' E 120°14'0 0.0
2015-Jul-30 19:29N 22°37' E 120°14'0 0.1
2015-Jul-30 18:33N 22°37' E 120°14'0 0.1
2015-Jul-30 17:33N 22°37' E 120°13'0 0.0
2015-Jul-30 16:33N 22°37' E 120°13'0 0.1
2015-Jul-30 15:33N 22°37' E 120°13'0 0.0
2015-Jul-30 14:33N 22°37' E 120°13'9 8.9
2015-Jul-30 13:34N 22°42' E 120°05'1313.5
2015-Jul-30 12:34N 22°49' E 119°53'11113.1
2015-Jul-30 04:06N 24°06' E 118°25'813.5
2015-Jul-30 03:32N 24°11' E 118°20'1313.4
2015-Jul-30 02:32N 24°21' E 118°09'1010.1
2015-Jul-30 01:30N 24°30' E 118°04'1 0.9
2015-Jul-30 00:20N 24°31' E 118°05'0 0.0
2015-Jul-29 23:20N 24°31' E 118°05'0 0.0
2015-Jul-29 22:26N 24°31' E 118°05'0 0.0
2015-Jul-29 21:26N 24°31' E 118°05'0 0.0
2015-Jul-29 20:26N 24°31' E 118°05'0 0.0
2015-Jul-29 18:29N 24°31' E 118°05'0 0.0
2015-Jul-29 13:29N 24°31' E 118°05'0 0.0
2015-Jul-29 09:11N 24°31' E 118°05'0 0.0
2015-Jul-29 08:26N 24°31' E 118°05'0 0.0
2015-Jul-29 07:05N 24°31' E 118°05'0 0.0
2015-Jul-29 06:32N 24°31' E 118°05'12 6.2
2015-Jul-29 04:32N 24°20' E 118°12'0 0.0
2015-Jul-29 03:19N 24°20' E 118°12'0 0.0
2015-Jul-29 02:33N 24°20' E 118°12'0 0.1
2015-Jul-29 01:33N 24°20' E 118°12'0 0.1
2015-Jul-29 00:33N 24°21' E 118°12'1 0.7
2015-Jul-28 23:33N 24°20' E 118°12'1312.3
2015-Jul-28 22:32N 24°21' E 118°26'1312.9
2015-Jul-28 21:32N 24°22' E 118°40'1512.7
2015-Jul-28 20:20N 24°26' E 118°56'102 3.3
2015-Jul-27 13:13N 22°60' E 119°56'1014.1
2015-Jul-27 12:32N 22°52' E 120°02'1414.0
2015-Jul-27 11:33N 22°40' E 120°10'9 9.0
2015-Jul-27 10:31N 22°35' E 120°18'0 0.0
2015-Jul-27 09:25N 22°35' E 120°18'0 0.0
2015-Jul-27 08:31N 22°35' E 120°18'0 0.0
2015-Jul-27 07:31N 22°35' E 120°18'0 0.0
2015-Jul-27 06:25N 22°35' E 120°18'0 0.0
2015-Jul-27 05:31N 22°35' E 120°18'0 0.0
2015-Jul-27 04:31N 22°35' E 120°18'1 1.2
2015-Jul-27 03:33N 22°36' E 120°17'8 8.2
2015-Jul-27 02:33N 22°40' E 120°10'1514.8
2015-Jul-27 01:33N 22°53' E 120°01'19611.6
2015-Jul-26 08:33N 26°07' E 119°34'8 8.5
2015-Jul-26 07:33N 26°00' E 119°29'0 0.0
2015-Jul-26 06:33N 26°00' E 119°29'0 0.0
2015-Jul-26 05:33N 26°00' E 119°29'0 0.0
2015-Jul-26 04:33N 26°00' E 119°29'0 0.0
2015-Jul-26 03:33N 26°00' E 119°29'0 0.0
2015-Jul-26 02:33N 26°00' E 119°29'0 0.0
2015-Jul-26 01:33N 26°00' E 119°29'0 0.0
2015-Jul-26 00:33N 26°00' E 119°29'0 0.0
2015-Jul-25 23:33N 26°00' E 119°29'0 0.0
2015-Jul-25 22:33N 26°00' E 119°29'0 0.0
2015-Jul-25 21:33N 26°00' E 119°29'0 0.0
2015-Jul-25 20:33N 26°00' E 119°29'0 0.0
2015-Jul-25 19:33N 26°00' E 119°29'0 0.0
2015-Jul-25 18:33N 26°00' E 119°29'0 0.0
2015-Jul-25 17:33N 26°00' E 119°29'0 0.0
2015-Jul-25 16:33N 26°00' E 119°29'0 0.0
2015-Jul-25 15:33N 26°00' E 119°29'0 0.0
2015-Jul-25 14:33N 26°00' E 119°29'0 0.0
2015-Jul-25 13:33N 26°00' E 119°29'0 0.0
2015-Jul-25 12:33N 26°00' E 119°29'0 0.0
2015-Jul-25 11:33N 26°00' E 119°29'0 0.0
2015-Jul-25 10:33N 26°00' E 119°29'0 0.0
2015-Jul-25 09:17N 26°00' E 119°29'910.4
2015-Jul-25 08:25N 26°08' E 119°35'14 2.7
2015-Jul-25 03:14N 26°04' E 119°50'0 0.1
2015-Jul-25 02:29N 26°04' E 119°50'19914.3
2015-Jul-24 12:33N 22°45' E 120°04'1313.5
2015-Jul-24 11:33N 22°34' E 120°12'5 5.4
2015-Jul-24 10:33N 22°35' E 120°18'0 0.0
2015-Jul-24 09:17N 22°35' E 120°18'0 0.0
2015-Jul-24 08:29N 22°35' E 120°18'0 0.0
2015-Jul-24 07:29N 22°35' E 120°18'0 0.0
2015-Jul-24 06:29N 22°35' E 120°18'0 0.0
2015-Jul-24 05:23N 22°35' E 120°18'0 0.0
2015-Jul-24 04:29N 22°35' E 120°18'0 0.0
2015-Jul-24 03:17N 22°35' E 120°18'0 0.0
2015-Jul-24 02:29N 22°35' E 120°18'4 3.8
2015-Jul-24 01:33N 22°37' E 120°15'1211.9
2015-Jul-24 00:33N 22°43' E 120°04'1514.9
2015-Jul-23 23:33N 22°51' E 119°51'10314.0
2015-Jul-23 16:10N 24°02' E 118°29'914.1
2015-Jul-23 15:33N 24°09' E 118°22'1414.5
2015-Jul-23 14:34N 24°19' E 118°12'8 5.6
2015-Jul-23 13:11N 24°25' E 118°06'4 6.3
2015-Jul-23 12:33N 24°28' E 118°03'4 1.5
2015-Jul-23 10:15N 24°31' E 118°05'0 0.0
2015-Jul-23 09:27N 24°31' E 118°05'0 0.0
2015-Jul-23 07:33N 24°31' E 118°05'0 0.0
2015-Jul-23 05:09N 24°31' E 118°05'0 0.0
2015-Jul-23 03:33N 24°31' E 118°05'0 0.0
2015-Jul-23 01:17N 24°31' E 118°05'5 7.2
2015-Jul-23 00:33N 24°26' E 118°04'9 9.2
2015-Jul-22 23:33N 24°20' E 118°12'8 7.7
2015-Jul-22 22:33N 24°20' E 118°20'1514.5
2015-Jul-22 21:33N 24°21' E 118°36'3014.6
2015-Jul-22 19:30N 24°31' E 119°08'  
Track history (hours):
 
Tides and Currents Weather Stations Pressure Air Temp Water Temp Dewpoint Dewpoint Depression Visibility Wind Speed Wind Dir Waves Ship Positions

Shin Chun

Last reported at 2015-Jul-31 10:12 UTC. Time now 2015-Jul-31 23:32 UTC.
Position N 22°48' E 120°06'.

Length 152 m; draft 6.4 m.

Type: Cargo ship. MMSI: 477218300.

Date/timePositionNaut miles runAvg speedWind from/ knotsBaromVisibWave heightAir tempDewpointWater temp
2015-Jul-31 10:12N 22°48' E 120°06'4 5.6
2015-Jul-31 09:33N 22°45' E 120°08'1 0.9
2015-Jul-31 08:33N 22°44' E 120°07'1 0.5
2015-Jul-31 07:33N 22°43' E 120°07'4 4.2
2015-Jul-31 06:33N 22°40' E 120°10'9 7.8
2015-Jul-31 05:21N 22°35' E 120°18'0 0.0
2015-Jul-31 04:33N 22°35' E 120°18'0 0.0
2015-Jul-31 03:33N 22°35' E 120°18'0 0.0
2015-Jul-31 02:27N 22°35' E 120°18'0 0.0
2015-Jul-31 01:33N 22°35' E 120°18'0 0.0
2015-Jul-31 00:11N 22°35' E 120°18'3 5.2
2015-Jul-30 23:33N 22°37' E 120°16'2 2.0
2015-Jul-30 22:29N 22°37' E 120°13'0 0.1
2015-Jul-30 21:29N 22°37' E 120°13'0 0.1
2015-Jul-30 20:23N 22°37' E 120°14'0 0.0
2015-Jul-30 19:29N 22°37' E 120°14'0 0.1
2015-Jul-30 18:33N 22°37' E 120°14'0 0.1
2015-Jul-30 17:33N 22°37' E 120°13'0 0.0
2015-Jul-30 16:33N 22°37' E 120°13'0 0.1
2015-Jul-30 15:33N 22°37' E 120°13'0 0.0
2015-Jul-30 14:33N 22°37' E 120°13'9 8.9
2015-Jul-30 13:34N 22°42' E 120°05'1313.5
2015-Jul-30 12:34N 22°49' E 119°53'11113.1
2015-Jul-30 04:06N 24°06' E 118°25'813.5
2015-Jul-30 03:32N 24°11' E 118°20'1313.4
2015-Jul-30 02:32N 24°21' E 118°09'1010.1
2015-Jul-30 01:30N 24°30' E 118°04'1 0.9
2015-Jul-30 00:20N 24°31' E 118°05'0 0.0
2015-Jul-29 23:20N 24°31' E 118°05'0 0.0
2015-Jul-29 22:26N 24°31' E 118°05'0 0.0
2015-Jul-29 21:26N 24°31' E 118°05'0 0.0
2015-Jul-29 20:26N 24°31' E 118°05'0 0.0
2015-Jul-29 18:29N 24°31' E 118°05'0 0.0
2015-Jul-29 13:29N 24°31' E 118°05'0 0.0
2015-Jul-29 09:11N 24°31' E 118°05'0 0.0
2015-Jul-29 08:26N 24°31' E 118°05'0 0.0
2015-Jul-29 07:05N 24°31' E 118°05'0 0.0
2015-Jul-29 06:32N 24°31' E 118°05'12 6.2
2015-Jul-29 04:32N 24°20' E 118°12'0 0.0
2015-Jul-29 03:19N 24°20' E 118°12'0 0.0
2015-Jul-29 02:33N 24°20' E 118°12'0 0.1
2015-Jul-29 01:33N 24°20' E 118°12'0 0.1
2015-Jul-29 00:33N 24°21' E 118°12'1 0.7
2015-Jul-28 23:33N 24°20' E 118°12'1312.3
2015-Jul-28 22:32N 24°21' E 118°26'1312.9
2015-Jul-28 21:32N 24°22' E 118°40'1512.7
2015-Jul-28 20:20N 24°26' E 118°56'102 3.3
2015-Jul-27 13:13N 22°60' E 119°56'1014.1
2015-Jul-27 12:32N 22°52' E 120°02'1414.0
2015-Jul-27 11:33N 22°40' E 120°10'9 9.0
2015-Jul-27 10:31N 22°35' E 120°18'0 0.0
2015-Jul-27 09:25N 22°35' E 120°18'0 0.0
2015-Jul-27 08:31N 22°35' E 120°18'0 0.0
2015-Jul-27 07:31N 22°35' E 120°18'0 0.0
2015-Jul-27 06:25N 22°35' E 120°18'0 0.0
2015-Jul-27 05:31N 22°35' E 120°18'0 0.0
2015-Jul-27 04:31N 22°35' E 120°18'1 1.2
2015-Jul-27 03:33N 22°36' E 120°17'8 8.2
2015-Jul-27 02:33N 22°40' E 120°10'1514.8
2015-Jul-27 01:33N 22°53' E 120°01'19611.6
2015-Jul-26 08:33N 26°07' E 119°34'8 8.5
2015-Jul-26 07:33N 26°00' E 119°29'0 0.0
2015-Jul-26 06:33N 26°00' E 119°29'0 0.0
2015-Jul-26 05:33N 26°00' E 119°29'0 0.0
2015-Jul-26 04:33N 26°00' E 119°29'0 0.0
2015-Jul-26 03:33N 26°00' E 119°29'0 0.0
2015-Jul-26 02:33N 26°00' E 119°29'0 0.0
2015-Jul-26 01:33N 26°00' E 119°29'0 0.0
2015-Jul-26 00:33N 26°00' E 119°29'0 0.0
2015-Jul-25 23:33N 26°00' E 119°29'0 0.0
2015-Jul-25 22:33N 26°00' E 119°29'0 0.0
2015-Jul-25 21:33N 26°00' E 119°29'0 0.0
2015-Jul-25 20:33N 26°00' E 119°29'0 0.0
2015-Jul-25 19:33N 26°00' E 119°29'0 0.0
2015-Jul-25 18:33N 26°00' E 119°29'0 0.0
2015-Jul-25 17:33N 26°00' E 119°29'0 0.0
2015-Jul-25 16:33N 26°00' E 119°29'0 0.0
2015-Jul-25 15:33N 26°00' E 119°29'0 0.0
2015-Jul-25 14:33N 26°00' E 119°29'0 0.0
2015-Jul-25 13:33N 26°00' E 119°29'0 0.0
2015-Jul-25 12:33N 26°00' E 119°29'0 0.0
2015-Jul-25 11:33N 26°00' E 119°29'0 0.0
2015-Jul-25 10:33N 26°00' E 119°29'0 0.0
2015-Jul-25 09:17N 26°00' E 119°29'910.4
2015-Jul-25 08:25N 26°08' E 119°35'14 2.7
2015-Jul-25 03:14N 26°04' E 119°50'0 0.1
2015-Jul-25 02:29N 26°04' E 119°50'19914.3
2015-Jul-24 12:33N 22°45' E 120°04'1313.5
2015-Jul-24 11:33N 22°34' E 120°12'5 5.4
2015-Jul-24 10:33N 22°35' E 120°18'0 0.0
2015-Jul-24 09:17N 22°35' E 120°18'0 0.0
2015-Jul-24 08:29N 22°35' E 120°18'0 0.0
2015-Jul-24 07:29N 22°35' E 120°18'0 0.0
2015-Jul-24 06:29N 22°35' E 120°18'0 0.0
2015-Jul-24 05:23N 22°35' E 120°18'0 0.0
2015-Jul-24 04:29N 22°35' E 120°18'0 0.0
2015-Jul-24 03:17N 22°35' E 120°18'0 0.0
2015-Jul-24 02:29N 22°35' E 120°18'4 3.8
2015-Jul-24 01:33N 22°37' E 120°15'1211.9
2015-Jul-24 00:33N 22°43' E 120°04'1514.9
2015-Jul-23 23:33N 22°51' E 119°51'10314.0
2015-Jul-23 16:10N 24°02' E 118°29'914.1
2015-Jul-23 15:33N 24°09' E 118°22'1414.5
2015-Jul-23 14:34N 24°19' E 118°12'8 5.6
2015-Jul-23 13:11N 24°25' E 118°06'4 6.3
2015-Jul-23 12:33N 24°28' E 118°03'4 1.5
2015-Jul-23 10:15N 24°31' E 118°05'0 0.0
2015-Jul-23 09:27N 24°31' E 118°05'0 0.0
2015-Jul-23 07:33N 24°31' E 118°05'0 0.0
2015-Jul-23 05:09N 24°31' E 118°05'0 0.0
2015-Jul-23 03:33N 24°31' E 118°05'0 0.0
2015-Jul-23 01:17N 24°31' E 118°05'5 7.2
2015-Jul-23 00:33N 24°26' E 118°04'9 9.2
2015-Jul-22 23:33N 24°20' E 118°12'8 7.7
2015-Jul-22 22:33N 24°20' E 118°20'1514.5
2015-Jul-22 21:33N 24°21' E 118°36'3014.6
2015-Jul-22 19:30N 24°31' E 119°08'  

Dump ship's entire track history